createdAt,value
2018-03-04T00:02:09.223Z,23.77
2018-03-04T00:04:37.275Z,21.33
2018-03-04T00:07:06.172Z,23.37
2018-03-04T00:09:35.010Z,21.07
2018-03-04T00:12:02.691Z,22.50
2018-03-04T00:14:30.364Z,22.37
2018-03-04T00:16:58.408Z,22.00
2018-03-04T00:19:26.545Z,24.07
2018-03-04T00:21:54.635Z,24.87
2018-03-04T00:24:22.347Z,25.60
2018-03-04T00:26:50.413Z,22.23
2018-03-04T00:29:18.054Z,23.37
2018-03-04T00:31:46.141Z,23.30
2018-03-04T00:34:13.835Z,22.10
2018-03-04T00:36:41.505Z,21.50
2018-03-04T00:39:09.463Z,23.50
2018-03-04T00:41:37.531Z,23.50
2018-03-04T00:44:06.400Z,25.10
2018-03-04T00:46:34.131Z,20.63
2018-03-04T00:49:01.943Z,21.90
2018-03-04T00:51:29.643Z,22.73
2018-03-04T00:53:57.624Z,25.53
2018-03-04T00:56:25.682Z,24.43
2018-03-04T00:58:53.328Z,23.57
2018-03-04T01:01:20.944Z,23.63
2018-03-04T01:03:48.817Z,24.77
2018-03-04T01:06:16.816Z,26.67
2018-03-04T01:08:44.744Z,23.27
2018-03-04T01:11:12.409Z,23.83
2018-03-04T01:13:40.112Z,25.67
2018-03-04T01:16:07.839Z,27.30
2018-03-04T01:18:35.845Z,23.93
2018-03-04T01:21:03.477Z,25.93
2018-03-04T01:23:31.121Z,25.03
2018-03-04T01:25:58.764Z,22.03
2018-03-04T01:28:26.399Z,24.03
2018-03-04T01:30:54.795Z,22.43
2018-03-04T01:33:22.428Z,24.93
2018-03-04T01:35:50.788Z,24.60
2018-03-04T01:38:18.380Z,25.67
2018-03-04T01:40:46.776Z,24.43
2018-03-04T01:43:14.362Z,24.97
2018-03-04T01:45:41.987Z,24.60
2018-03-04T01:48:09.592Z,25.70
2018-03-04T01:50:37.223Z,23.60
2018-03-04T01:53:04.831Z,24.53
2018-03-04T01:55:32.449Z,24.83
2018-03-04T01:58:00.094Z,26.23
2018-03-04T02:00:27.694Z,26.50
2018-03-04T02:02:55.341Z,26.20
2018-03-04T02:05:22.962Z,23.97
2018-03-04T02:07:50.593Z,23.87
2018-03-04T02:10:18.182Z,24.63
2018-03-04T02:12:45.832Z,23.53
2018-03-04T02:15:14.209Z,26.60
2018-03-04T02:17:42.619Z,25.50
2018-03-04T02:20:10.241Z,21.40
2018-03-04T02:22:38.599Z,29.30
2018-03-04T02:25:06.223Z,26.77
2018-03-04T02:27:33.843Z,27.13
2018-03-04T02:30:02.291Z,28.33
2018-03-04T02:32:29.889Z,24.70
2018-03-04T02:34:58.289Z,23.60
2018-03-04T02:37:25.939Z,24.07
2018-03-04T02:39:53.539Z,24.30
2018-03-04T02:42:21.165Z,26.20
2018-03-04T02:44:48.759Z,27.50
2018-03-04T02:47:16.403Z,21.93
2018-03-04T02:49:43.996Z,25.17
2018-03-04T02:52:11.646Z,21.90
2018-03-04T02:54:39.238Z,25.13
2018-03-04T02:57:07.605Z,24.70
2018-03-04T02:59:35.232Z,24.03
2018-03-04T03:02:03.097Z,23.60
2018-03-04T03:04:30.730Z,28.00
2018-03-04T03:06:58.325Z,24.07
2018-03-04T03:09:25.966Z,25.07
2018-03-04T03:11:53.583Z,23.43
2018-03-04T03:14:21.952Z,24.60
2018-03-04T03:16:49.584Z,22.27
2018-03-04T03:19:17.190Z,25.40
2018-03-04T03:21:45.589Z,24.07
2018-03-04T03:24:13.194Z,25.40
2018-03-04T03:26:40.823Z,25.13
2018-03-04T03:29:08.412Z,25.57
2018-03-04T03:31:36.037Z,27.13
2018-03-04T03:34:03.639Z,26.10
2018-03-04T03:36:31.228Z,21.90
2018-03-04T03:38:59.630Z,25.97
2018-03-04T03:41:27.271Z,25.77
2018-03-04T03:43:55.682Z,25.90
2018-03-04T03:46:23.261Z,25.40
2018-03-04T03:48:50.884Z,28.17
2018-03-04T03:51:18.480Z,23.90
2018-03-04T03:53:46.115Z,28.20
2018-03-04T03:56:13.714Z,29.17
2018-03-04T03:58:41.326Z,26.67
2018-03-04T04:01:09.117Z,22.97
2018-03-04T04:03:36.742Z,26.67
2018-03-04T04:06:04.385Z,24.10
2018-03-04T04:08:32.755Z,26.07
2018-03-04T04:11:01.214Z,22.63
2018-03-04T04:13:28.817Z,25.03
2018-03-04T04:15:56.421Z,25.40
2018-03-04T04:18:24.043Z,25.93
2018-03-04T04:20:51.636Z,26.10
2018-03-04T04:23:19.270Z,28.83
2018-03-04T04:25:46.876Z,26.83
2018-03-04T04:28:14.572Z,27.60
2018-03-04T04:30:42.937Z,21.43
2018-03-04T04:33:11.300Z,24.90
2018-03-04T04:35:38.931Z,28.73
2018-03-04T04:38:06.662Z,25.70
2018-03-04T04:40:34.290Z,24.37
2018-03-04T04:43:02.120Z,29.10
2018-03-04T04:45:29.748Z,27.00
2018-03-04T04:47:57.346Z,28.23
2018-03-04T04:50:24.981Z,29.87
2018-03-04T04:52:52.566Z,24.67
2018-03-04T04:55:20.184Z,26.80
2018-03-04T04:57:47.809Z,27.80
2018-03-04T05:00:15.404Z,24.37
2018-03-04T05:02:43.066Z,28.90
2018-03-04T05:05:10.686Z,24.90
2018-03-04T05:07:38.343Z,25.37
2018-03-04T05:10:05.953Z,25.70
2018-03-04T05:12:33.585Z,23.33
2018-03-04T05:15:01.949Z,26.47
2018-03-04T05:17:29.542Z,27.97
2018-03-04T05:19:57.163Z,24.97
2018-03-04T05:22:24.773Z,31.80
2018-03-04T05:24:52.426Z,30.63
2018-03-04T05:27:20.044Z,28.80
2018-03-04T05:29:47.664Z,28.10
2018-03-04T05:32:15.244Z,29.17
2018-03-04T05:34:42.879Z,25.97
2018-03-04T05:37:10.572Z,27.63
2018-03-04T05:39:38.180Z,25.70
2018-03-04T05:42:06.637Z,24.90
2018-03-04T05:44:34.229Z,27.03
2018-03-04T05:47:01.848Z,25.60
2018-03-04T05:49:29.452Z,25.50
2018-03-04T05:51:57.101Z,22.37
2018-03-04T05:54:25.455Z,30.50
2018-03-04T05:56:53.871Z,25.67
2018-03-04T05:59:21.454Z,28.23
2018-03-04T06:01:49.065Z,28.20
2018-03-04T06:04:17.457Z,30.33
2018-03-04T06:06:45.070Z,27.60
2018-03-04T06:09:12.705Z,28.40
2018-03-04T06:11:40.300Z,28.83
2018-03-04T06:14:07.915Z,29.77
2018-03-04T06:16:35.549Z,29.40
2018-03-04T06:19:03.976Z,27.67
2018-03-04T06:21:31.676Z,27.23
2018-03-04T06:23:59.289Z,28.57
2018-03-04T06:26:26.939Z,35.73
2018-03-04T06:28:54.557Z,29.17
2018-03-04T06:31:22.137Z,30.13
2018-03-04T06:33:50.519Z,29.03
2018-03-04T06:36:18.887Z,30.60
2018-03-04T06:38:47.285Z,30.60
2018-03-04T06:41:14.870Z,34.80
2018-03-04T06:43:42.502Z,31.87
2018-03-04T06:46:10.092Z,29.70
2018-03-04T06:48:37.751Z,30.60
2018-03-04T06:51:05.377Z,34.03
2018-03-04T06:53:33.008Z,28.30
2018-03-04T06:56:00.623Z,31.10
2018-03-04T06:58:28.257Z,32.07
2018-03-04T07:00:55.900Z,30.50
2018-03-04T07:03:24.302Z,31.57
2018-03-04T07:05:51.945Z,32.77
2018-03-04T07:08:20.362Z,29.80
2018-03-04T07:10:47.986Z,31.13
2018-03-04T07:13:16.436Z,30.80
2018-03-04T07:15:44.102Z,33.10
2018-03-04T07:18:11.906Z,32.80
2018-03-04T07:20:39.573Z,31.90
2018-03-04T07:23:07.190Z,31.47
2018-03-04T07:25:34.870Z,29.93
2018-03-04T07:28:03.257Z,31.33
2018-03-04T07:30:31.680Z,27.57
2018-03-04T07:33:00.082Z,31.00
2018-03-04T07:35:27.749Z,32.63
2018-03-04T07:37:55.370Z,35.90
2018-03-04T07:40:22.989Z,32.73
2018-03-04T07:42:51.404Z,30.93
2018-03-04T07:45:19.014Z,30.10
2018-03-04T07:47:46.783Z,34.90
2018-03-04T07:50:14.438Z,32.27
2018-03-04T07:52:42.081Z,29.53
2018-03-04T07:55:09.728Z,32.07
2018-03-04T07:57:37.405Z,32.50
2018-03-04T08:00:05.095Z,30.00
2018-03-04T08:02:32.733Z,30.43
2018-03-04T08:05:00.402Z,34.40
2018-03-04T08:07:28.980Z,32.07
2018-03-04T08:09:56.743Z,33.00
2018-03-04T08:12:24.370Z,29.83
2018-03-04T08:14:52.041Z,32.47
2018-03-04T08:17:19.665Z,32.07
2018-03-04T08:19:47.292Z,34.97
2018-03-04T08:22:14.951Z,35.80
2018-03-04T08:24:42.596Z,33.10
2018-03-04T08:27:22.054Z,36.33
2018-03-04T08:29:53.100Z,36.80
2018-03-04T08:32:21.646Z,34.27
2018-03-04T08:34:49.323Z,34.90
2018-03-04T08:37:17.067Z,35.73
2018-03-04T08:39:44.716Z,34.33
2018-03-04T08:42:12.352Z,37.27
2018-03-04T08:44:41.797Z,33.43
2018-03-04T08:47:09.473Z,32.00
2018-03-04T08:49:37.588Z,34.50
2018-03-04T08:52:05.243Z,35.70
2018-03-04T08:54:33.632Z,34.30
2018-03-04T08:57:01.271Z,35.37
2018-03-04T08:59:29.713Z,35.80
2018-03-04T09:01:57.337Z,36.83
2018-03-04T09:04:25.096Z,35.00
2018-03-04T09:06:52.780Z,32.33
2018-03-04T09:09:21.205Z,34.67
2018-03-04T09:11:48.909Z,35.97
2018-03-04T09:14:16.577Z,34.37
2018-03-04T09:16:44.269Z,33.23
2018-03-04T09:19:12.735Z,31.97
2018-03-04T09:21:40.390Z,33.57
2018-03-04T09:24:08.054Z,35.50
2018-03-04T09:26:35.690Z,32.07
2018-03-04T09:29:03.760Z,33.93
2018-03-04T09:31:31.388Z,32.60
2018-03-04T09:33:59.809Z,35.80
2018-03-04T09:36:27.431Z,36.43
2018-03-04T09:38:55.855Z,35.20
2018-03-04T09:41:23.466Z,35.83
2018-03-04T09:43:51.856Z,34.67
2018-03-04T09:46:19.516Z,37.50
2018-03-04T09:48:47.886Z,35.37
2018-03-04T09:51:16.310Z,33.90
2018-03-04T09:53:43.927Z,39.50
2018-03-04T09:56:12.357Z,35.97
2018-03-04T09:58:39.977Z,35.47
2018-03-04T10:01:08.361Z,39.13
2018-03-04T10:03:36.774Z,35.90
2018-03-04T10:06:04.401Z,38.43
2018-03-04T10:08:32.016Z,35.40
2018-03-04T10:10:59.614Z,37.23
2018-03-04T10:13:28.004Z,35.57
2018-03-04T10:15:55.624Z,34.70
2018-03-04T10:18:23.276Z,34.93
2018-03-04T10:20:50.882Z,35.30
2018-03-04T10:23:20.059Z,35.50
2018-03-04T10:25:48.445Z,35.40
2018-03-04T10:28:16.980Z,37.07
2018-03-04T10:30:44.602Z,37.17
2018-03-04T10:33:12.273Z,37.20
2018-03-04T10:35:39.912Z,34.53
2018-03-04T10:38:08.395Z,37.00
2018-03-04T10:40:36.777Z,38.93
2018-03-04T10:43:05.440Z,35.27
2018-03-04T10:45:33.831Z,35.23
2018-03-04T10:48:02.689Z,37.40
2018-03-04T10:50:30.292Z,36.47
2018-03-04T10:53:00.377Z,37.83
2018-03-04T10:55:28.880Z,36.77
2018-03-04T10:57:56.529Z,36.70
2018-03-04T11:00:24.965Z,36.60
2018-03-04T11:02:52.640Z,37.83
2018-03-04T11:05:20.454Z,37.50
2018-03-04T11:07:48.947Z,36.97
2018-03-04T11:10:21.307Z,36.87
2018-03-04T11:12:49.752Z,34.53
2018-03-04T11:18:13.061Z,37.20
2018-03-04T11:20:40.687Z,36.60
2018-03-04T11:23:09.421Z,36.53
2018-03-04T11:25:37.107Z,37.03
2018-03-04T11:28:05.800Z,37.10
2018-03-04T11:30:33.445Z,41.30
2018-03-04T11:33:03.948Z,37.30
2018-03-04T11:35:31.806Z,36.93
2018-03-04T11:38:00.240Z,34.37
2018-03-04T11:40:28.064Z,36.37
2018-03-04T11:42:55.937Z,38.23
2018-03-04T11:45:23.610Z,37.90
2018-03-04T11:47:51.240Z,37.57
2018-03-04T11:50:18.832Z,36.23
2018-03-04T11:52:46.696Z,37.53
2018-03-04T11:55:15.083Z,37.70
2018-03-04T11:57:43.853Z,36.30
2018-03-04T12:00:11.482Z,38.27
2018-03-04T12:02:39.129Z,37.67
2018-03-04T12:05:10.603Z,40.20
2018-03-04T12:07:38.324Z,41.00
2018-03-04T12:10:05.960Z,41.63
2018-03-04T12:12:33.610Z,36.80
2018-03-04T12:15:02.052Z,39.07
2018-03-04T12:17:29.688Z,38.07
2018-03-04T12:19:57.323Z,37.30
2018-03-04T12:22:24.974Z,40.17
2018-03-04T12:24:52.772Z,39.80
2018-03-04T12:27:20.403Z,37.53
2018-03-04T12:29:48.131Z,42.70
2018-03-04T12:32:15.769Z,40.30
2018-03-04T12:34:43.401Z,39.10
2018-03-04T12:37:11.710Z,37.83
2018-03-04T12:39:39.361Z,38.40
2018-03-04T12:42:07.790Z,44.50
2018-03-04T12:44:35.444Z,39.50
2018-03-04T12:47:03.241Z,40.93
2018-03-04T12:49:30.856Z,40.27
2018-03-04T12:51:58.525Z,38.20
2018-03-04T12:54:26.182Z,39.23
2018-03-04T12:56:53.838Z,39.87
2018-03-04T12:59:21.496Z,37.20
2018-03-04T13:01:49.142Z,38.00
2018-03-04T13:04:17.585Z,39.60
2018-03-04T13:06:45.975Z,39.80
2018-03-04T13:09:13.649Z,39.97
2018-03-04T13:11:41.429Z,36.10
2018-03-04T13:14:09.864Z,39.60
2018-03-04T13:16:38.423Z,39.07
2018-03-04T13:19:06.782Z,38.83
2018-03-04T13:21:34.660Z,40.03
2018-03-04T13:24:02.424Z,36.03
2018-03-04T13:26:30.054Z,36.70
2018-03-04T13:28:58.433Z,35.83
2018-03-04T13:31:26.892Z,36.37
2018-03-04T13:33:54.479Z,39.63
2018-03-04T13:36:22.066Z,37.30
2018-03-04T13:38:49.712Z,34.10
2018-03-04T13:41:17.334Z,37.77
2018-03-04T13:43:44.964Z,37.40
2018-03-04T13:46:12.554Z,35.80
2018-03-04T13:48:40.172Z,37.20
2018-03-04T13:51:07.772Z,38.20
2018-03-04T13:53:35.392Z,34.43
2018-03-04T13:56:03.102Z,35.33
2018-03-04T13:58:30.737Z,35.30
2018-03-04T14:00:58.314Z,35.03
2018-03-04T14:03:25.922Z,38.10
2018-03-04T14:05:53.541Z,34.70
2018-03-04T14:08:21.120Z,37.43
2018-03-04T14:10:49.504Z,38.30
2018-03-04T14:13:17.852Z,39.23
2018-03-04T14:15:45.480Z,39.37
2018-03-04T14:18:13.060Z,38.10
2018-03-04T14:20:40.714Z,37.43
2018-03-04T14:23:08.372Z,37.20
2018-03-04T14:25:35.981Z,37.50
2018-03-04T14:28:03.738Z,34.50
2018-03-04T14:30:32.097Z,37.63
2018-03-04T14:32:59.721Z,36.33
2018-03-04T14:35:27.308Z,37.37
2018-03-04T14:37:54.908Z,36.70
2018-03-04T14:40:22.538Z,37.50
2018-03-04T14:42:50.136Z,35.33
2018-03-04T14:45:17.752Z,34.13
2018-03-04T14:47:45.357Z,36.00
2018-03-04T14:50:12.982Z,38.40
2018-03-04T14:52:47.243Z,36.13
2018-03-04T14:55:14.923Z,36.57
2018-03-04T14:57:42.528Z,37.57
2018-03-04T15:00:10.889Z,39.40
2018-03-04T15:02:38.500Z,37.40
2018-03-04T15:05:06.126Z,35.40
2018-03-04T15:07:34.552Z,35.40
2018-03-04T15:10:02.294Z,38.77
2018-03-04T15:12:29.949Z,39.57
2018-03-04T15:14:57.550Z,34.07
2018-03-04T15:17:25.148Z,38.57
2018-03-04T15:19:53.583Z,36.00
2018-03-04T15:22:21.250Z,37.43
2018-03-04T15:24:48.937Z,33.93
2018-03-04T15:27:17.334Z,36.20
2018-03-04T15:29:45.816Z,37.00
2018-03-04T15:32:13.442Z,36.43
2018-03-04T15:34:41.084Z,36.10
2018-03-04T15:37:08.684Z,35.70
2018-03-04T15:39:37.078Z,34.93
2018-03-04T15:42:04.774Z,38.67
2018-03-04T15:44:32.419Z,36.03
2018-03-04T15:47:00.158Z,36.33
2018-03-04T15:49:28.541Z,37.43
2018-03-04T15:51:56.199Z,37.00
2018-03-04T15:54:24.565Z,36.17
2018-03-04T15:56:52.931Z,34.90
2018-03-04T15:59:20.545Z,34.50
2018-03-04T16:01:48.143Z,66.33
2018-03-04T16:04:15.784Z,36.83
2018-03-04T16:06:43.389Z,35.23
2018-03-04T16:09:11.793Z,35.47
2018-03-04T16:11:39.442Z,33.37
2018-03-04T16:14:07.090Z,36.37
2018-03-04T16:16:35.934Z,35.13
2018-03-04T16:19:03.533Z,34.27
2018-03-04T16:21:31.936Z,37.27
2018-03-04T16:23:59.943Z,35.57
2018-03-04T16:26:27.567Z,35.50
2018-03-04T16:28:55.290Z,33.23
2018-03-04T16:31:23.170Z,37.20
2018-03-04T16:33:51.662Z,31.60
2018-03-04T16:36:20.166Z,33.37
2018-03-04T16:38:47.890Z,32.83
2018-03-04T16:41:15.623Z,33.33
2018-03-04T16:43:43.397Z,34.83
2018-03-04T16:46:10.989Z,35.20
2018-03-04T16:48:39.406Z,33.13
2018-03-04T16:51:07.165Z,36.77
2018-03-04T16:53:35.666Z,32.87
2018-03-04T16:56:03.266Z,33.10
2018-03-04T16:58:31.651Z,35.07
2018-03-04T17:00:59.303Z,33.53
2018-03-04T17:03:27.686Z,31.40
2018-03-04T17:05:56.128Z,35.63
2018-03-04T17:08:23.723Z,35.30
2018-03-04T17:10:55.981Z,34.93
2018-03-04T17:13:29.634Z,35.70
2018-03-04T17:16:02.761Z,35.20
2018-03-04T17:18:39.046Z,33.63
2018-03-04T17:21:10.192Z,35.03
2018-03-04T17:23:42.842Z,35.77
2018-03-04T17:26:10.980Z,33.90
2018-03-04T17:28:38.641Z,35.80
2018-03-04T17:31:06.468Z,36.20
2018-03-04T17:33:35.764Z,34.60
2018-03-04T17:36:04.245Z,36.63
2018-03-04T17:38:32.678Z,35.47
2018-03-04T17:41:00.284Z,37.50
2018-03-04T17:43:28.031Z,35.07
2018-03-04T17:45:57.896Z,35.57
2018-03-04T17:48:26.574Z,38.63
2018-03-04T17:51:14.653Z,34.63
2018-03-04T17:53:55.670Z,35.87
2018-03-04T17:56:23.426Z,34.10
2018-03-04T17:58:51.090Z,36.30
2018-03-04T18:01:18.721Z,33.77
2018-03-04T18:03:46.315Z,37.27
2018-03-04T18:06:13.928Z,33.83
2018-03-04T18:08:41.625Z,32.57
2018-03-04T18:11:10.093Z,32.77
2018-03-04T18:13:37.748Z,34.77
2018-03-04T18:16:05.393Z,33.93
2018-03-04T18:18:33.110Z,32.87
2018-03-04T18:21:00.762Z,31.30
2018-03-04T18:23:28.504Z,32.47
2018-03-04T18:25:56.137Z,31.63
2018-03-04T18:28:23.762Z,32.80
2018-03-04T18:30:52.738Z,30.60
2018-03-04T18:33:51.181Z,31.20
2018-03-04T18:36:19.915Z,30.07
2018-03-04T18:38:47.510Z,29.10
2018-03-04T18:41:15.878Z,27.90
2018-03-04T18:43:44.320Z,27.07
2018-03-04T18:46:11.945Z,29.40
2018-03-04T18:48:39.560Z,28.90
2018-03-04T18:51:07.181Z,28.03
2018-03-04T18:53:34.859Z,28.43
2018-03-04T18:56:02.705Z,30.60
2018-03-04T18:58:30.284Z,28.30
2018-03-04T19:00:57.944Z,26.17
2018-03-04T19:03:25.552Z,29.57
2018-03-04T19:05:53.955Z,29.23
2018-03-04T19:08:21.537Z,29.53
2018-03-04T19:10:49.177Z,29.30
2018-03-04T19:13:16.758Z,28.30
2018-03-04T19:15:44.346Z,29.40
2018-03-04T19:18:11.953Z,29.00
2018-03-04T19:20:39.536Z,30.77
2018-03-04T19:23:07.927Z,29.53
2018-03-04T19:25:35.535Z,30.27
2018-03-04T19:28:03.222Z,28.03
2018-03-04T19:30:30.819Z,28.30
2018-03-04T19:32:58.462Z,29.37
2018-03-04T19:35:26.101Z,30.03
2018-03-04T19:37:54.078Z,28.43
2018-03-04T19:40:21.772Z,28.50
2018-03-04T19:42:49.378Z,28.33
2018-03-04T19:45:17.009Z,29.77
2018-03-04T19:47:45.406Z,29.90
2018-03-04T19:50:12.992Z,30.37
2018-03-04T19:52:40.614Z,26.30
2018-03-04T19:55:08.998Z,30.77
2018-03-04T19:57:37.405Z,32.00
2018-03-04T20:00:05.156Z,30.17
2018-03-04T20:02:33.598Z,28.37
2018-03-04T20:05:02.424Z,29.53
2018-03-04T20:07:30.067Z,29.27
2018-03-04T20:09:58.449Z,31.40
2018-03-04T20:12:26.069Z,31.30
2018-03-04T20:14:53.694Z,32.20
2018-03-04T20:17:21.283Z,30.43
2018-03-04T20:19:48.924Z,29.67
2018-03-04T20:22:16.556Z,30.80
2018-03-04T20:24:44.144Z,30.00
2018-03-04T20:27:11.800Z,31.00
2018-03-04T20:29:39.400Z,27.30
2018-03-04T20:32:07.034Z,30.67
2018-03-04T20:34:35.513Z,31.43
2018-03-04T20:37:03.381Z,28.87
2018-03-04T20:39:31.195Z,30.83
2018-03-04T20:41:59.800Z,30.83
2018-03-04T20:44:27.629Z,32.60
2018-03-04T20:46:55.997Z,31.70
2018-03-04T20:49:23.627Z,30.80
2018-03-04T20:51:51.209Z,30.07
2018-03-04T20:54:18.862Z,31.50
2018-03-04T20:56:47.445Z,32.60
2018-03-04T20:59:15.038Z,31.70
2018-03-04T21:01:43.427Z,32.00
2018-03-04T21:04:11.793Z,31.67
2018-03-04T21:06:40.234Z,32.77
2018-03-04T21:09:07.885Z,33.37
2018-03-04T21:11:35.539Z,32.10
2018-03-04T21:14:03.131Z,34.27
2018-03-04T21:16:30.747Z,33.27
2018-03-04T21:18:58.907Z,32.00
2018-03-04T21:21:26.502Z,32.30
2018-03-04T21:23:54.110Z,32.83
2018-03-04T21:26:22.468Z,32.57
2018-03-04T21:28:50.113Z,32.13
2018-03-04T21:31:17.707Z,33.80
2018-03-04T21:33:46.060Z,33.23
2018-03-04T21:36:13.733Z,33.00
2018-03-04T21:38:41.333Z,33.43
2018-03-04T21:41:08.961Z,32.80
2018-03-04T21:43:37.667Z,33.30
2018-03-04T21:46:05.342Z,33.10
2018-03-04T21:48:32.987Z,30.57
2018-03-04T21:51:01.354Z,32.60
2018-03-04T21:53:29.759Z,30.37
2018-03-04T21:55:57.344Z,31.80
2018-03-04T21:58:24.949Z,30.67
2018-03-04T22:00:53.332Z,31.07
2018-03-04T22:03:21.777Z,31.47
2018-03-04T22:05:49.392Z,29.80
2018-03-04T22:08:17.185Z,31.00
2018-03-04T22:10:44.827Z,29.83
2018-03-04T22:13:13.860Z,29.63
2018-03-04T22:15:42.578Z,28.80
2018-03-04T22:18:11.159Z,30.90
2018-03-04T22:20:39.511Z,30.13
2018-03-04T22:23:07.715Z,30.03
2018-03-04T22:25:35.394Z,31.83
2018-03-04T22:28:03.036Z,30.60
2018-03-04T22:30:31.391Z,29.93
2018-03-04T22:32:58.996Z,28.80
2018-03-04T22:35:26.631Z,27.40
2018-03-04T22:37:54.248Z,31.57
2018-03-04T22:40:22.849Z,29.67
2018-03-04T22:42:50.426Z,31.70
2018-03-04T22:45:18.883Z,30.17
2018-03-04T22:47:46.601Z,28.57
2018-03-04T22:50:14.204Z,30.37
2018-03-04T22:52:41.823Z,29.40
2018-03-04T22:55:10.115Z,29.30
2018-03-04T22:57:37.731Z,29.23
2018-03-04T23:00:06.109Z,30.37
2018-03-04T23:02:34.506Z,29.33
2018-03-04T23:05:02.339Z,28.20
2018-03-04T23:07:29.923Z,28.67
2018-03-04T23:09:58.595Z,29.17
2018-03-04T23:12:27.066Z,28.80
2018-03-04T23:14:54.941Z,29.03
2018-03-04T23:17:23.552Z,30.37
2018-03-04T23:19:51.168Z,29.63
2018-03-04T23:22:18.919Z,27.70
2018-03-04T23:24:46.561Z,30.00
2018-03-04T23:27:14.316Z,29.00
2018-03-04T23:29:41.939Z,28.30
2018-03-04T23:32:10.587Z,31.20
2018-03-04T23:34:38.171Z,27.57
2018-03-04T23:37:06.683Z,26.60
2018-03-04T23:39:34.267Z,28.47
2018-03-04T23:42:01.911Z,29.60
2018-03-04T23:44:29.496Z,28.20
2018-03-04T23:46:57.118Z,28.27
2018-03-04T23:49:24.758Z,30.70
2018-03-04T23:51:53.140Z,30.00
2018-03-04T23:54:21.516Z,29.77
2018-03-04T23:56:49.892Z,32.17
2018-03-04T23:59:18.277Z,28.20
